sensor_id;sensor_type;location;lat;lon;timestamp;P1;durP1;ratioP1;P2;durP2;ratioP2
28028;SDS011;15345;59.364;18.016;2023-05-16T00:00:38;10.00;;;6.03;;
28028;SDS011;15345;59.364;18.016;2023-05-16T00:01:57;10.90;;;6.15;;
28028;SDS011;15345;59.364;18.016;2023-05-16T00:03:16;12.10;;;5.90;;
28028;SDS011;15345;59.364;18.016;2023-05-16T00:04:35;5.55;;;5.05;;
28028;SDS011;15345;59.364;18.016;2023-05-16T00:05:54;11.15;;;5.63;;
28028;SDS011;15345;59.364;18.016;2023-05-16T00:07:13;12.38;;;6.03;;
28028;SDS011;15345;59.364;18.016;2023-05-16T00:08:32;11.55;;;5.95;;
28028;SDS011;15345;59.364;18.016;2023-05-16T00:09:51;10.93;;;5.40;;
28028;SDS011;15345;59.364;18.016;2023-05-16T00:11:10;13.85;;;6.18;;
28028;SDS011;15345;59.364;18.016;2023-05-16T00:12:29;6.65;;;5.47;;
28028;SDS011;15345;59.364;18.016;2023-05-16T00:13:50;10.10;;;6.00;;
28028;SDS011;15345;59.364;18.016;2023-05-16T00:15:10;5.75;;;5.25;;
28028;SDS011;15345;59.364;18.016;2023-05-16T00:16:31;8.98;;;5.45;;
28028;SDS011;15345;59.364;18.016;2023-05-16T00:17:50;5.45;;;5.00;;
28028;SDS011;15345;59.364;18.016;2023-05-16T00:19:10;6.38;;;5.63;;
28028;SDS011;15345;59.364;18.016;2023-05-16T00:20:29;6.47;;;5.63;;
28028;SDS011;15345;59.364;18.016;2023-05-16T00:21:48;8.93;;;5.20;;
28028;SDS011;15345;59.364;18.016;2023-05-16T00:23:06;8.38;;;6.13;;
28028;SDS011;15345;59.364;18.016;2023-05-16T00:24:25;6.57;;;5.50;;
28028;SDS011;15345;59.364;18.016;2023-05-16T00:25:44;6.63;;;5.95;;
28028;SDS011;15345;59.364;18.016;2023-05-16T00:27:04;11.57;;;6.70;;
28028;SDS011;15345;59.364;18.016;2023-05-16T00:28:23;6.63;;;6.03;;
28028;SDS011;15345;59.364;18.016;2023-05-16T00:29:42;9.20;;;6.03;;
28028;SDS011;15345;59.364;18.016;2023-05-16T00:31:01;6.97;;;5.70;;
28028;SDS011;15345;59.364;18.016;2023-05-16T00:32:20;5.78;;;5.20;;
28028;SDS011;15345;59.364;18.016;2023-05-16T00:33:39;8.68;;;5.90;;
28028;SDS011;15345;59.364;18.016;2023-05-16T00:34:58;8.02;;;5.82;;
28028;SDS011;15345;59.364;18.016;2023-05-16T00:36:17;10.60;;;6.38;;
28028;SDS011;15345;59.364;18.016;2023-05-16T00:37:36;6.55;;;5.13;;
28028;SDS011;15345;59.364;18.016;2023-05-16T00:38:56;8.07;;;5.68;;
28028;SDS011;15345;59.364;18.016;2023-05-16T00:40:15;8.40;;;5.55;;
28028;SDS011;15345;59.364;18.016;2023-05-16T00:41:34;9.55;;;5.72;;
28028;SDS011;15345;59.364;18.016;2023-05-16T00:42:53;6.72;;;6.22;;
28028;SDS011;15345;59.364;18.016;2023-05-16T00:44:12;6.35;;;5.85;;
28028;SDS011;15345;59.364;18.016;2023-05-16T00:45:31;6.50;;;5.95;;
28028;SDS011;15345;59.364;18.016;2023-05-16T00:46:50;14.50;;;5.70;;
28028;SDS011;15345;59.364;18.016;2023-05-16T00:48:10;8.90;;;5.97;;
28028;SDS011;15345;59.364;18.016;2023-05-16T00:49:29;9.50;;;6.25;;
28028;SDS011;15345;59.364;18.016;2023-05-16T00:50:48;9.88;;;6.35;;
28028;SDS011;15345;59.364;18.016;2023-05-16T00:52:08;9.27;;;6.18;;
28028;SDS011;15345;59.364;18.016;2023-05-16T00:53:26;11.32;;;6.60;;
28028;SDS011;15345;59.364;18.016;2023-05-16T00:54:45;6.57;;;5.97;;
28028;SDS011;15345;59.364;18.016;2023-05-16T00:56:04;10.35;;;5.88;;
28028;SDS011;15345;59.364;18.016;2023-05-16T00:57:24;9.80;;;5.72;;
28028;SDS011;15345;59.364;18.016;2023-05-16T00:58:43;8.68;;;6.15;;
28028;SDS011;15345;59.364;18.016;2023-05-16T01:00:03;6.38;;;5.25;;
28028;SDS011;15345;59.364;18.016;2023-05-16T01:01:24;6.32;;;5.78;;
28028;SDS011;15345;59.364;18.016;2023-05-16T01:02:43;7.25;;;6.20;;
28028;SDS011;15345;59.364;18.016;2023-05-16T01:04:04;6.32;;;5.70;;
28028;SDS011;15345;59.364;18.016;2023-05-16T01:05:23;11.32;;;5.93;;
28028;SDS011;15345;59.364;18.016;2023-05-16T01:06:42;6.63;;;6.05;;
28028;SDS011;15345;59.364;18.016;2023-05-16T01:08:02;5.95;;;5.32;;
28028;SDS011;15345;59.364;18.016;2023-05-16T01:09:21;6.20;;;5.70;;
28028;SDS011;15345;59.364;18.016;2023-05-16T01:10:43;5.97;;;5.38;;
28028;SDS011;15345;59.364;18.016;2023-05-16T01:12:19;9.25;;;5.88;;
28028;SDS011;15345;59.364;18.016;2023-05-16T01:13:42;11.27;;;5.95;;
28028;SDS011;15345;59.364;18.016;2023-05-16T01:15:12;9.88;;;5.45;;
28028;SDS011;15345;59.364;18.016;2023-05-16T01:16:35;10.32;;;5.90;;
28028;SDS011;15345;59.364;18.016;2023-05-16T01:18:11;10.70;;;5.93;;
28028;SDS011;15345;59.364;18.016;2023-05-16T01:20:59;8.23;;;6.10;;
28028;SDS011;15345;59.364;18.016;2023-05-16T01:22:40;10.35;;;6.15;;
28028;SDS011;15345;59.364;18.016;2023-05-16T01:24:08;10.68;;;5.82;;
28028;SDS011;15345;59.364;18.016;2023-05-16T01:26:50;8.60;;;5.68;;
28028;SDS011;15345;59.364;18.016;2023-05-16T01:28:10;6.18;;;5.50;;
28028;SDS011;15345;59.364;18.016;2023-05-16T01:29:30;7.95;;;6.07;;
28028;SDS011;15345;59.364;18.016;2023-05-16T01:30:50;9.65;;;5.90;;
28028;SDS011;15345;59.364;18.016;2023-05-16T01:32:09;7.80;;;5.25;;
28028;SDS011;15345;59.364;18.016;2023-05-16T01:33:28;7.43;;;5.43;;
28028;SDS011;15345;59.364;18.016;2023-05-16T01:34:49;6.50;;;5.47;;
28028;SDS011;15345;59.364;18.016;2023-05-16T01:37:34;11.73;;;5.38;;
28028;SDS011;15345;59.364;18.016;2023-05-16T01:39:06;12.15;;;5.60;;
28028;SDS011;15345;59.364;18.016;2023-05-16T01:40:33;7.95;;;5.60;;
28028;SDS011;15345;59.364;18.016;2023-05-16T01:42:04;6.18;;;5.47;;
28028;SDS011;15345;59.364;18.016;2023-05-16T01:43:33;8.65;;;6.43;;
28028;SDS011;15345;59.364;18.016;2023-05-16T01:44:55;6.32;;;5.50;;
28028;SDS011;15345;59.364;18.016;2023-05-16T01:47:35;7.35;;;5.90;;
28028;SDS011;15345;59.364;18.016;2023-05-16T01:50:15;8.15;;;5.88;;
28028;SDS011;15345;59.364;18.016;2023-05-16T01:51:35;9.18;;;5.95;;
28028;SDS011;15345;59.364;18.016;2023-05-16T01:52:58;5.15;;;4.75;;
28028;SDS011;15345;59.364;18.016;2023-05-16T01:54:18;10.63;;;6.00;;
28028;SDS011;15345;59.364;18.016;2023-05-16T01:55:48;6.05;;;5.45;;
28028;SDS011;15345;59.364;18.016;2023-05-16T01:57:07;7.20;;;5.50;;
28028;SDS011;15345;59.364;18.016;2023-05-16T01:58:27;5.53;;;5.00;;
28028;SDS011;15345;59.364;18.016;2023-05-16T01:59:48;14.70;;;5.55;;
28028;SDS011;15345;59.364;18.016;2023-05-16T02:01:07;7.15;;;5.57;;
28028;SDS011;15345;59.364;18.016;2023-05-16T02:02:26;8.48;;;5.30;;
28028;SDS011;15345;59.364;18.016;2023-05-16T02:03:45;10.25;;;5.90;;
28028;SDS011;15345;59.364;18.016;2023-05-16T02:05:04;13.85;;;5.45;;
28028;SDS011;15345;59.364;18.016;2023-05-16T02:06:22;7.53;;;5.30;;
28028;SDS011;15345;59.364;18.016;2023-05-16T02:07:41;14.45;;;5.18;;
28028;SDS011;15345;59.364;18.016;2023-05-16T02:09:01;7.10;;;5.28;;
28028;SDS011;15345;59.364;18.016;2023-05-16T02:10:20;16.63;;;5.53;;
28028;SDS011;15345;59.364;18.016;2023-05-16T02:11:40;6.55;;;4.97;;
28028;SDS011;15345;59.364;18.016;2023-05-16T02:12:58;7.40;;;4.95;;
28028;SDS011;15345;59.364;18.016;2023-05-16T02:14:17;8.90;;;5.28;;
28028;SDS011;15345;59.364;18.016;2023-05-16T02:15:37;12.25;;;5.65;;
28028;SDS011;15345;59.364;18.016;2023-05-16T02:16:56;8.07;;;5.53;;
28028;SDS011;15345;59.364;18.016;2023-05-16T02:18:15;6.47;;;5.20;;
28028;SDS011;15345;59.364;18.016;2023-05-16T02:19:35;8.10;;;5.40;;
28028;SDS011;15345;59.364;18.016;2023-05-16T02:20:54;8.55;;;5.40;;
28028;SDS011;15345;59.364;18.016;2023-05-16T02:22:13;9.05;;;5.30;;
28028;SDS011;15345;59.364;18.016;2023-05-16T02:23:32;7.43;;;5.07;;
28028;SDS011;15345;59.364;18.016;2023-05-16T02:24:51;5.75;;;4.97;;
28028;SDS011;15345;59.364;18.016;2023-05-16T02:26:10;7.13;;;4.97;;
28028;SDS011;15345;59.364;18.016;2023-05-16T02:27:29;6.85;;;5.28;;
28028;SDS011;15345;59.364;18.016;2023-05-16T02:28:48;9.20;;;4.80;;
28028;SDS011;15345;59.364;18.016;2023-05-16T02:30:10;6.18;;;5.30;;
28028;SDS011;15345;59.364;18.016;2023-05-16T02:31:30;10.57;;;4.95;;
28028;SDS011;15345;59.364;18.016;2023-05-16T02:32:49;13.75;;;5.80;;
28028;SDS011;15345;59.364;18.016;2023-05-16T02:34:08;5.90;;;5.50;;
28028;SDS011;15345;59.364;18.016;2023-05-16T02:35:28;9.40;;;5.22;;
28028;SDS011;15345;59.364;18.016;2023-05-16T02:36:47;5.88;;;4.53;;
28028;SDS011;15345;59.364;18.016;2023-05-16T02:38:06;6.55;;;4.68;;
28028;SDS011;15345;59.364;18.016;2023-05-16T02:39:25;5.70;;;4.78;;
28028;SDS011;15345;59.364;18.016;2023-05-16T02:40:44;6.55;;;5.10;;
28028;SDS011;15345;59.364;18.016;2023-05-16T02:42:04;5.80;;;5.05;;
28028;SDS011;15345;59.364;18.016;2023-05-16T02:43:23;6.22;;;5.45;;
28028;SDS011;15345;59.364;18.016;2023-05-16T02:44:42;8.80;;;5.57;;
28028;SDS011;15345;59.364;18.016;2023-05-16T02:46:03;7.13;;;4.85;;
28028;SDS011;15345;59.364;18.016;2023-05-16T02:47:22;5.63;;;5.22;;
28028;SDS011;15345;59.364;18.016;2023-05-16T02:48:41;9.52;;;5.47;;
28028;SDS011;15345;59.364;18.016;2023-05-16T02:50:00;5.95;;;5.45;;
28028;SDS011;15345;59.364;18.016;2023-05-16T02:51:19;8.93;;;5.90;;
28028;SDS011;15345;59.364;18.016;2023-05-16T02:52:38;5.63;;;5.22;;
28028;SDS011;15345;59.364;18.016;2023-05-16T02:53:57;11.70;;;5.82;;
28028;SDS011;15345;59.364;18.016;2023-05-16T02:55:19;7.93;;;5.53;;
28028;SDS011;15345;59.364;18.016;2023-05-16T02:56:39;7.18;;;5.45;;
28028;SDS011;15345;59.364;18.016;2023-05-16T02:57:58;6.68;;;5.30;;
28028;SDS011;15345;59.364;18.016;2023-05-16T02:59:16;5.03;;;4.63;;
28028;SDS011;15345;59.364;18.016;2023-05-16T03:00:35;9.63;;;5.90;;
28028;SDS011;15345;59.364;18.016;2023-05-16T03:01:55;5.78;;;5.28;;
28028;SDS011;15345;59.364;18.016;2023-05-16T03:03:14;8.55;;;5.40;;
28028;SDS011;15345;59.364;18.016;2023-05-16T03:04:33;10.55;;;5.35;;
28028;SDS011;15345;59.364;18.016;2023-05-16T03:05:55;6.22;;;5.35;;
28028;SDS011;15345;59.364;18.016;2023-05-16T03:07:14;6.22;;;5.32;;
28028;SDS011;15345;59.364;18.016;2023-05-16T03:08:33;5.65;;;5.15;;
28028;SDS011;15345;59.364;18.016;2023-05-16T03:09:52;5.70;;;5.15;;
28028;SDS011;15345;59.364;18.016;2023-05-16T03:11:11;8.93;;;5.20;;
28028;SDS011;15345;59.364;18.016;2023-05-16T03:12:30;5.88;;;5.43;;
28028;SDS011;15345;59.364;18.016;2023-05-16T03:13:49;5.60;;;5.25;;
28028;SDS011;15345;59.364;18.016;2023-05-16T03:15:08;5.95;;;5.13;;
28028;SDS011;15345;59.364;18.016;2023-05-16T03:16:27;7.95;;;5.20;;
28028;SDS011;15345;59.364;18.016;2023-05-16T03:17:46;7.72;;;5.68;;
28028;SDS011;15345;59.364;18.016;2023-05-16T03:19:05;5.57;;;5.18;;
28028;SDS011;15345;59.364;18.016;2023-05-16T03:20:24;7.65;;;5.40;;
28028;SDS011;15345;59.364;18.016;2023-05-16T03:21:43;7.25;;;5.35;;
28028;SDS011;15345;59.364;18.016;2023-05-16T03:23:02;6.03;;;5.18;;
28028;SDS011;15345;59.364;18.016;2023-05-16T03:24:21;10.27;;;5.93;;
28028;SDS011;15345;59.364;18.016;2023-05-16T03:25:40;8.52;;;5.75;;
28028;SDS011;15345;59.364;18.016;2023-05-16T03:27:01;4.82;;;4.45;;
28028;SDS011;15345;59.364;18.016;2023-05-16T03:28:22;9.18;;;5.35;;
28028;SDS011;15345;59.364;18.016;2023-05-16T03:29:41;5.45;;;5.00;;
28028;SDS011;15345;59.364;18.016;2023-05-16T03:31:00;9.02;;;5.03;;
28028;SDS011;15345;59.364;18.016;2023-05-16T03:32:18;5.18;;;4.85;;
28028;SDS011;15345;59.364;18.016;2023-05-16T03:33:37;5.25;;;4.50;;
28028;SDS011;15345;59.364;18.016;2023-05-16T03:34:56;5.72;;;5.07;;
28028;SDS011;15345;59.364;18.016;2023-05-16T03:36:15;8.57;;;5.32;;
28028;SDS011;15345;59.364;18.016;2023-05-16T03:37:34;6.40;;;5.05;;
28028;SDS011;15345;59.364;18.016;2023-05-16T03:38:53;5.63;;;5.10;;
28028;SDS011;15345;59.364;18.016;2023-05-16T03:40:12;7.35;;;5.40;;
28028;SDS011;15345;59.364;18.016;2023-05-16T03:41:31;5.78;;;4.80;;
28028;SDS011;15345;59.364;18.016;2023-05-16T03:42:50;6.50;;;5.00;;
28028;SDS011;15345;59.364;18.016;2023-05-16T03:44:09;7.25;;;4.38;;
28028;SDS011;15345;59.364;18.016;2023-05-16T03:45:28;11.45;;;5.05;;
28028;SDS011;15345;59.364;18.016;2023-05-16T03:46:48;5.55;;;5.03;;
28028;SDS011;15345;59.364;18.016;2023-05-16T03:48:08;8.02;;;5.05;;
28028;SDS011;15345;59.364;18.016;2023-05-16T03:49:27;6.00;;;5.00;;
28028;SDS011;15345;59.364;18.016;2023-05-16T03:50:46;7.35;;;5.13;;
28028;SDS011;15345;59.364;18.016;2023-05-16T03:52:05;7.60;;;5.22;;
28028;SDS011;15345;59.364;18.016;2023-05-16T03:53:24;10.35;;;5.25;;
28028;SDS011;15345;59.364;18.016;2023-05-16T03:54:43;7.40;;;4.82;;
28028;SDS011;15345;59.364;18.016;2023-05-16T03:56:02;9.25;;;5.30;;
28028;SDS011;15345;59.364;18.016;2023-05-16T03:57:21;6.15;;;5.25;;
28028;SDS011;15345;59.364;18.016;2023-05-16T03:58:40;5.75;;;5.10;;
28028;SDS011;15345;59.364;18.016;2023-05-16T03:59:59;10.77;;;6.45;;
28028;SDS011;15345;59.364;18.016;2023-05-16T04:01:18;13.05;;;5.32;;
28028;SDS011;15345;59.364;18.016;2023-05-16T04:02:37;10.32;;;6.00;;
28028;SDS011;15345;59.364;18.016;2023-05-16T04:04:00;5.70;;;5.10;;
28028;SDS011;15345;59.364;18.016;2023-05-16T04:05:20;7.72;;;5.40;;
28028;SDS011;15345;59.364;18.016;2023-05-16T04:06:38;8.68;;;5.75;;
28028;SDS011;15345;59.364;18.016;2023-05-16T04:07:58;9.40;;;5.32;;
28028;SDS011;15345;59.364;18.016;2023-05-16T04:09:17;6.88;;;5.60;;
28028;SDS011;15345;59.364;18.016;2023-05-16T04:10:36;7.82;;;5.70;;
28028;SDS011;15345;59.364;18.016;2023-05-16T04:11:55;6.28;;;5.68;;
28028;SDS011;15345;59.364;18.016;2023-05-16T04:13:14;6.82;;;5.50;;
28028;SDS011;15345;59.364;18.016;2023-05-16T04:14:34;7.07;;;5.57;;
28028;SDS011;15345;59.364;18.016;2023-05-16T04:15:53;8.77;;;6.20;;
28028;SDS011;15345;59.364;18.016;2023-05-16T04:17:12;8.98;;;5.32;;
28028;SDS011;15345;59.364;18.016;2023-05-16T04:18:31;10.13;;;6.63;;
28028;SDS011;15345;59.364;18.016;2023-05-16T04:19:50;6.45;;;5.95;;
28028;SDS011;15345;59.364;18.016;2023-05-16T04:21:09;9.95;;;5.50;;
28028;SDS011;15345;59.364;18.016;2023-05-16T04:22:32;7.03;;;5.45;;
28028;SDS011;15345;59.364;18.016;2023-05-16T04:23:51;9.38;;;5.38;;
28028;SDS011;15345;59.364;18.016;2023-05-16T04:25:10;8.27;;;6.10;;
28028;SDS011;15345;59.364;18.016;2023-05-16T04:26:30;10.93;;;5.43;;
28028;SDS011;15345;59.364;18.016;2023-05-16T04:27:49;13.02;;;5.00;;
28028;SDS011;15345;59.364;18.016;2023-05-16T04:29:09;10.00;;;5.40;;
28028;SDS011;15345;59.364;18.016;2023-05-16T04:30:29;10.70;;;5.40;;
28028;SDS011;15345;59.364;18.016;2023-05-16T04:31:48;10.10;;;5.80;;
28028;SDS011;15345;59.364;18.016;2023-05-16T04:33:07;10.10;;;5.72;;
28028;SDS011;15345;59.364;18.016;2023-05-16T04:34:26;9.30;;;5.63;;
28028;SDS011;15345;59.364;18.016;2023-05-16T04:35:45;8.25;;;5.20;;
28028;SDS011;15345;59.364;18.016;2023-05-16T04:37:04;9.63;;;6.10;;
28028;SDS011;15345;59.364;18.016;2023-05-16T04:38:25;13.75;;;6.15;;
28028;SDS011;15345;59.364;18.016;2023-05-16T04:39:44;9.88;;;5.82;;
28028;SDS011;15345;59.364;18.016;2023-05-16T04:41:04;11.43;;;6.28;;
28028;SDS011;15345;59.364;18.016;2023-05-16T04:42:23;7.78;;;5.70;;
28028;SDS011;15345;59.364;18.016;2023-05-16T04:43:43;6.65;;;6.10;;
28028;SDS011;15345;59.364;18.016;2023-05-16T04:45:01;16.13;;;6.18;;
28028;SDS011;15345;59.364;18.016;2023-05-16T04:46:21;7.10;;;6.35;;
28028;SDS011;15345;59.364;18.016;2023-05-16T04:47:40;12.98;;;7.30;;
28028;SDS011;15345;59.364;18.016;2023-05-16T04:48:59;9.23;;;5.93;;
28028;SDS011;15345;59.364;18.016;2023-05-16T04:50:19;8.63;;;6.80;;
28028;SDS011;15345;59.364;18.016;2023-05-16T04:51:38;11.88;;;6.97;;
28028;SDS011;15345;59.364;18.016;2023-05-16T04:52:57;6.20;;;5.60;;
28028;SDS011;15345;59.364;18.016;2023-05-16T04:54:16;7.30;;;6.60;;
28028;SDS011;15345;59.364;18.016;2023-05-16T04:55:35;6.00;;;5.50;;
28028;SDS011;15345;59.364;18.016;2023-05-16T04:56:54;6.55;;;6.05;;
28028;SDS011;15345;59.364;18.016;2023-05-16T04:58:12;8.02;;;6.20;;
28028;SDS011;15345;59.364;18.016;2023-05-16T04:59:31;6.65;;;6.15;;
28028;SDS011;15345;59.364;18.016;2023-05-16T05:00:50;11.68;;;6.68;;
28028;SDS011;15345;59.364;18.016;2023-05-16T05:02:10;7.72;;;7.00;;
28028;SDS011;15345;59.364;18.016;2023-05-16T05:03:29;7.10;;;6.40;;
28028;SDS011;15345;59.364;18.016;2023-05-16T05:04:48;6.93;;;6.32;;
28028;SDS011;15345;59.364;18.016;2023-05-16T05:06:07;7.32;;;6.60;;
28028;SDS011;15345;59.364;18.016;2023-05-16T05:07:26;6.95;;;6.35;;
28028;SDS011;15345;59.364;18.016;2023-05-16T05:08:47;7.57;;;6.82;;
28028;SDS011;15345;59.364;18.016;2023-05-16T05:10:06;10.43;;;6.68;;
28028;SDS011;15345;59.364;18.016;2023-05-16T05:11:26;7.28;;;6.57;;
28028;SDS011;15345;59.364;18.016;2023-05-16T05:12:45;8.05;;;7.28;;
28028;SDS011;15345;59.364;18.016;2023-05-16T05:14:04;7.88;;;7.18;;
28028;SDS011;15345;59.364;18.016;2023-05-16T05:15:23;8.52;;;7.72;;
28028;SDS011;15345;59.364;18.016;2023-05-16T05:16:42;9.00;;;7.22;;
28028;SDS011;15345;59.364;18.016;2023-05-16T05:18:01;10.30;;;7.30;;
28028;SDS011;15345;59.364;18.016;2023-05-16T05:19:20;7.47;;;6.97;;
28028;SDS011;15345;59.364;18.016;2023-05-16T05:20:39;8.35;;;7.55;;
28028;SDS011;15345;59.364;18.016;2023-05-16T05:21:58;8.43;;;7.13;;
28028;SDS011;15345;59.364;18.016;2023-05-16T05:23:17;8.77;;;7.32;;
28028;SDS011;15345;59.364;18.016;2023-05-16T05:24:37;7.68;;;6.90;;
28028;SDS011;15345;59.364;18.016;2023-05-16T05:25:56;8.52;;;6.55;;
28028;SDS011;15345;59.364;18.016;2023-05-16T05:27:15;7.88;;;6.75;;
28028;SDS011;15345;59.364;18.016;2023-05-16T05:28:36;10.00;;;7.00;;
28028;SDS011;15345;59.364;18.016;2023-05-16T05:29:56;10.27;;;7.43;;
28028;SDS011;15345;59.364;18.016;2023-05-16T05:31:15;8.75;;;6.63;;
28028;SDS011;15345;59.364;18.016;2023-05-16T05:32:34;7.13;;;6.40;;
28028;SDS011;15345;59.364;18.016;2023-05-16T05:33:53;10.48;;;7.22;;
28028;SDS011;15345;59.364;18.016;2023-05-16T05:35:12;7.68;;;6.93;;
28028;SDS011;15345;59.364;18.016;2023-05-16T05:36:33;10.07;;;7.30;;
28028;SDS011;15345;59.364;18.016;2023-05-16T05:37:52;7.80;;;6.82;;
28028;SDS011;15345;59.364;18.016;2023-05-16T05:39:11;12.85;;;7.70;;
28028;SDS011;15345;59.364;18.016;2023-05-16T05:40:29;8.35;;;7.40;;
28028;SDS011;15345;59.364;18.016;2023-05-16T05:41:48;12.13;;;7.80;;
28028;SDS011;15345;59.364;18.016;2023-05-16T05:43:07;8.73;;;8.05;;
28028;SDS011;15345;59.364;18.016;2023-05-16T05:44:26;9.77;;;7.47;;
28028;SDS011;15345;59.364;18.016;2023-05-16T05:45:45;7.03;;;6.53;;
28028;SDS011;15345;59.364;18.016;2023-05-16T05:47:04;9.13;;;7.25;;
28028;SDS011;15345;59.364;18.016;2023-05-16T05:48:24;8.45;;;7.65;;
28028;SDS011;15345;59.364;18.016;2023-05-16T05:49:43;9.70;;;7.32;;
28028;SDS011;15345;59.364;18.016;2023-05-16T05:51:02;8.80;;;7.60;;
28028;SDS011;15345;59.364;18.016;2023-05-16T05:52:21;11.65;;;8.02;;
28028;SDS011;15345;59.364;18.016;2023-05-16T05:53:40;11.80;;;7.85;;
28028;SDS011;15345;59.364;18.016;2023-05-16T05:54:59;10.60;;;7.45;;
28028;SDS011;15345;59.364;18.016;2023-05-16T05:56:18;8.52;;;7.82;;
28028;SDS011;15345;59.364;18.016;2023-05-16T05:57:38;8.40;;;7.57;;
28028;SDS011;15345;59.364;18.016;2023-05-16T05:58:57;7.72;;;7.03;;
28028;SDS011;15345;59.364;18.016;2023-05-16T06:00:17;9.60;;;7.90;;
28028;SDS011;15345;59.364;18.016;2023-05-16T06:01:36;8.75;;;7.72;;
28028;SDS011;15345;59.364;18.016;2023-05-16T06:02:55;7.93;;;7.18;;
28028;SDS011;15345;59.364;18.016;2023-05-16T06:04:14;8.18;;;7.10;;
28028;SDS011;15345;59.364;18.016;2023-05-16T06:05:33;9.18;;;8.15;;
28028;SDS011;15345;59.364;18.016;2023-05-16T06:06:52;13.20;;;8.13;;
28028;SDS011;15345;59.364;18.016;2023-05-16T06:08:11;8.00;;;7.38;;
28028;SDS011;15345;59.364;18.016;2023-05-16T06:09:30;8.88;;;7.90;;
28028;SDS011;15345;59.364;18.016;2023-05-16T06:10:50;9.73;;;7.93;;
28028;SDS011;15345;59.364;18.016;2023-05-16T06:12:09;9.07;;;7.88;;
28028;SDS011;15345;59.364;18.016;2023-05-16T06:13:28;7.65;;;6.88;;
28028;SDS011;15345;59.364;18.016;2023-05-16T06:14:47;7.82;;;6.82;;
28028;SDS011;15345;59.364;18.016;2023-05-16T06:16:06;8.15;;;6.43;;
28028;SDS011;15345;59.364;18.016;2023-05-16T06:17:25;14.85;;;7.38;;
28028;SDS011;15345;59.364;18.016;2023-05-16T06:18:44;7.72;;;6.93;;
28028;SDS011;15345;59.364;18.016;2023-05-16T06:20:03;7.95;;;7.28;;
28028;SDS011;15345;59.364;18.016;2023-05-16T06:21:22;8.45;;;6.55;;
28028;SDS011;15345;59.364;18.016;2023-05-16T06:22:42;7.97;;;7.43;;
28028;SDS011;15345;59.364;18.016;2023-05-16T06:24:01;7.85;;;7.15;;
28028;SDS011;15345;59.364;18.016;2023-05-16T06:25:20;7.25;;;6.53;;
28028;SDS011;15345;59.364;18.016;2023-05-16T06:26:39;8.30;;;7.38;;
28028;SDS011;15345;59.364;18.016;2023-05-16T06:27:58;8.45;;;7.05;;
28028;SDS011;15345;59.364;18.016;2023-05-16T06:29:17;7.60;;;6.90;;
28028;SDS011;15345;59.364;18.016;2023-05-16T06:30:36;9.07;;;7.38;;
28028;SDS011;15345;59.364;18.016;2023-05-16T06:31:55;7.57;;;7.07;;
28028;SDS011;15345;59.364;18.016;2023-05-16T06:33:14;7.68;;;7.03;;
28028;SDS011;15345;59.364;18.016;2023-05-16T06:34:33;6.68;;;6.07;;
28028;SDS011;15345;59.364;18.016;2023-05-16T06:35:53;7.80;;;7.20;;
28028;SDS011;15345;59.364;18.016;2023-05-16T06:37:11;9.25;;;7.00;;
28028;SDS011;15345;59.364;18.016;2023-05-16T06:38:30;10.07;;;7.20;;
28028;SDS011;15345;59.364;18.016;2023-05-16T06:39:49;7.88;;;6.93;;
28028;SDS011;15345;59.364;18.016;2023-05-16T06:41:08;7.32;;;6.70;;
28028;SDS011;15345;59.364;18.016;2023-05-16T06:42:27;8.32;;;7.40;;
28028;SDS011;15345;59.364;18.016;2023-05-16T06:43:46;8.82;;;7.32;;
28028;SDS011;15345;59.364;18.016;2023-05-16T06:45:05;8.43;;;7.07;;
28028;SDS011;15345;59.364;18.016;2023-05-16T06:46:24;7.47;;;6.95;;
28028;SDS011;15345;59.364;18.016;2023-05-16T06:47:44;7.85;;;7.07;;
28028;SDS011;15345;59.364;18.016;2023-05-16T06:49:03;9.32;;;7.30;;
28028;SDS011;15345;59.364;18.016;2023-05-16T06:50:22;8.15;;;7.65;;
28028;SDS011;15345;59.364;18.016;2023-05-16T06:51:41;9.13;;;7.40;;
28028;SDS011;15345;59.364;18.016;2023-05-16T06:53:00;8.20;;;7.47;;
28028;SDS011;15345;59.364;18.016;2023-05-16T06:54:19;8.43;;;7.63;;
28028;SDS011;15345;59.364;18.016;2023-05-16T06:55:39;9.75;;;7.70;;
28028;SDS011;15345;59.364;18.016;2023-05-16T06:56:58;8.15;;;7.55;;
28028;SDS011;15345;59.364;18.016;2023-05-16T06:58:17;9.45;;;7.75;;
28028;SDS011;15345;59.364;18.016;2023-05-16T06:59:36;8.65;;;7.68;;
28028;SDS011;15345;59.364;18.016;2023-05-16T07:00:55;8.13;;;7.47;;
28028;SDS011;15345;59.364;18.016;2023-05-16T07:02:14;9.90;;;7.88;;
28028;SDS011;15345;59.364;18.016;2023-05-16T07:03:32;11.35;;;7.35;;
28028;SDS011;15345;59.364;18.016;2023-05-16T07:04:52;9.15;;;7.63;;
28028;SDS011;15345;59.364;18.016;2023-05-16T07:06:11;10.45;;;8.07;;
28028;SDS011;15345;59.364;18.016;2023-05-16T07:07:30;7.85;;;7.28;;
28028;SDS011;15345;59.364;18.016;2023-05-16T07:08:49;7.75;;;7.15;;
28028;SDS011;15345;59.364;18.016;2023-05-16T07:10:08;9.35;;;7.50;;
28028;SDS011;15345;59.364;18.016;2023-05-16T07:11:27;8.05;;;7.35;;
28028;SDS011;15345;59.364;18.016;2023-05-16T07:12:46;8.20;;;7.45;;
28028;SDS011;15345;59.364;18.016;2023-05-16T07:14:05;8.70;;;7.93;;
28028;SDS011;15345;59.364;18.016;2023-05-16T07:15:24;8.00;;;7.50;;
28028;SDS011;15345;59.364;18.016;2023-05-16T07:16:43;8.30;;;7.70;;
28028;SDS011;15345;59.364;18.016;2023-05-16T07:18:02;8.60;;;7.85;;
28028;SDS011;15345;59.364;18.016;2023-05-16T07:19:21;8.15;;;7.45;;
28028;SDS011;15345;59.364;18.016;2023-05-16T07:20:40;8.38;;;7.55;;
28028;SDS011;15345;59.364;18.016;2023-05-16T07:21:58;10.07;;;7.80;;
28028;SDS011;15345;59.364;18.016;2023-05-16T07:23:17;9.00;;;8.30;;
28028;SDS011;15345;59.364;18.016;2023-05-16T07:24:37;7.72;;;7.20;;
28028;SDS011;15345;59.364;18.016;2023-05-16T07:25:55;8.35;;;7.55;;
28028;SDS011;15345;59.364;18.016;2023-05-16T07:27:14;7.88;;;7.28;;
28028;SDS011;15345;59.364;18.016;2023-05-16T07:28:34;8.60;;;7.88;;
28028;SDS011;15345;59.364;18.016;2023-05-16T07:29:53;8.15;;;7.45;;
28028;SDS011;15345;59.364;18.016;2023-05-16T07:31:12;8.52;;;7.72;;
28028;SDS011;15345;59.364;18.016;2023-05-16T07:32:31;8.38;;;7.15;;
28028;SDS011;15345;59.364;18.016;2023-05-16T07:33:50;8.10;;;7.45;;
28028;SDS011;15345;59.364;18.016;2023-05-16T07:35:09;10.40;;;7.90;;
28028;SDS011;15345;59.364;18.016;2023-05-16T07:36:28;9.68;;;8.48;;
28028;SDS011;15345;59.364;18.016;2023-05-16T07:37:47;9.30;;;8.13;;
28028;SDS011;15345;59.364;18.016;2023-05-16T07:39:06;10.40;;;7.85;;
28028;SDS011;15345;59.364;18.016;2023-05-16T07:40:25;10.65;;;8.05;;
28028;SDS011;15345;59.364;18.016;2023-05-16T07:41:47;8.48;;;7.75;;
28028;SDS011;15345;59.364;18.016;2023-05-16T07:43:05;8.60;;;7.93;;
28028;SDS011;15345;59.364;18.016;2023-05-16T07:44:24;8.90;;;8.10;;
28028;SDS011;15345;59.364;18.016;2023-05-16T07:45:43;7.97;;;7.32;;
28028;SDS011;15345;59.364;18.016;2023-05-16T07:47:02;9.35;;;8.10;;
28028;SDS011;15345;59.364;18.016;2023-05-16T07:48:21;8.30;;;7.63;;
28028;SDS011;15345;59.364;18.016;2023-05-16T07:49:40;8.65;;;7.53;;
28028;SDS011;15345;59.364;18.016;2023-05-16T07:50:59;8.32;;;7.70;;
28028;SDS011;15345;59.364;18.016;2023-05-16T07:52:18;8.40;;;7.70;;
28028;SDS011;15345;59.364;18.016;2023-05-16T07:53:37;8.20;;;7.65;;
28028;SDS011;15345;59.364;18.016;2023-05-16T07:54:56;8.48;;;7.65;;
28028;SDS011;15345;59.364;18.016;2023-05-16T07:56:16;8.55;;;7.75;;
28028;SDS011;15345;59.364;18.016;2023-05-16T07:57:35;8.15;;;7.50;;